Caribbean Princess — ZCDG8 — position and weather

sailwx.info

Track history (hours):
 
Tides and Currents Weather Stations Pressure Air Temp Water Temp Dewpoint Dewpoint Depression Visibility Wind Speed Wind Dir Waves Ship Positions

Caribbean Princess

Operator: Princess Cruises

Last reported at 2017-Jun-23 01:44 UTC. Time now 2017-Jun-23 20:40 UTC.
Position N 55°23' W 004°60'.

Type: Passenger vessel. MMSI: 310423000.

Date/timePositionNaut miles runAvg speedWind from/ knotsBaromVisibWave heightAir tempDewpointWater temp
2017-Jun-23 01:44N 55°23' W 004°60'1211.2
2017-Jun-23 00:37N 55°16' W 005°18'311.9
2017-Jun-23 00:22N 55°13' W 005°20'511.3
2017-Jun-22 23:56N 55°08' W 005°23'511.4
2017-Jun-22 23:30N 55°04' W 005°26'611.8
2017-Jun-22 23:01N 54°58' W 005°24'612.2
2017-Jun-22 22:31N 54°52' W 005°24'612.0
2017-Jun-22 22:01N 54°46' W 005°22'611.7
2017-Jun-22 21:30N 54°44' W 005°32'611.1
2017-Jun-22 21:01N 54°42' W 005°41'510.3
2017-Jun-22 20:30N 54°40' W 005°50'4 3.4
2017-Jun-22 19:14N 54°37' W 005°54'0 0.0
2017-Jun-22 18:50N 54°37' W 005°54'0 0.0
2017-Jun-22 18:17N 54°37' W 005°54'0 0.0
2017-Jun-22 17:53N 54°37' W 005°54'0 0.0
2017-Jun-22 17:26N 54°37' W 005°54'0 0.0
2017-Jun-22 16:59N 54°37' W 005°54'0 0.0
2017-Jun-22 16:08N 54°37' W 005°54'0 0.0
2017-Jun-22 15:26N 54°37' W 005°54'0 0.0
2017-Jun-22 14:53N 54°37' W 005°54'0 0.0
2017-Jun-22 14:26N 54°37' W 005°54'0 0.0
2017-Jun-22 13:17N 54°37' W 005°54'0 0.0
2017-Jun-22 12:05N 54°37' W 005°54'0 0.0
2017-Jun-22 11:20N 54°37' W 005°54'0 0.0
2017-Jun-22 10:53N 54°37' W 005°54'0 0.0
2017-Jun-22 10:17N 54°37' W 005°54'0 0.0
2017-Jun-22 09:53N 54°37' W 005°54'0 0.0
2017-Jun-22 09:26N 54°37' W 005°54'0 0.0
2017-Jun-22 08:50N 54°37' W 005°54'0 0.0
2017-Jun-22 08:17N 54°37' W 005°54'0 0.0
2017-Jun-22 07:05N 54°37' W 005°54'0 0.0
2017-Jun-22 06:53N 54°37' W 005°54'0 0.0
2017-Jun-22 06:22N 54°37' W 005°54'1 1.6
2017-Jun-22 06:00N 54°38' W 005°53'2 3.1
2017-Jun-22 05:30N 54°39' W 005°52'510.2
2017-Jun-22 05:00N 54°42' W 005°45'611.6
2017-Jun-22 04:30N 54°44' W 005°36'611.7
2017-Jun-22 04:00N 54°46' W 005°27'510.3
2017-Jun-22 03:30N 54°43' W 005°20'611.2
2017-Jun-22 03:00N 54°38' W 005°15'510.9
2017-Jun-22 02:30N 54°34' W 005°09'611.3
2017-Jun-22 02:00N 54°29' W 005°04'510.8
2017-Jun-22 01:30N 54°24' W 004°59'510.8
2017-Jun-22 01:01N 54°20' W 005°03'611.7
2017-Jun-22 00:31N 54°14' W 005°08'611.7
2017-Jun-22 00:00N 54°09' W 005°13'611.7
2017-Jun-21 23:30N 54°04' W 005°16'510.9
2017-Jun-21 23:00N 53°59' W 005°21'126 5.2
2017-Jun-20 22:48N 51°60' W 006°30'516.6
2017-Jun-20 22:30N 51°59' W 006°37'917.1
2017-Jun-20 22:00N 51°56' W 006°51'816.7
2017-Jun-20 21:30N 51°54' W 007°04'713.3
2017-Jun-20 21:00N 51°53' W 007°14'612.5
2017-Jun-20 20:30N 51°51' W 007°24'612.3
2017-Jun-20 20:00N 51°50' W 007°33'612.9
2017-Jun-20 19:30N 51°48' W 007°44'713.2
2017-Jun-20 19:00N 51°46' W 007°54'713.0
2017-Jun-20 18:30N 51°45' W 008°04'612.6
2017-Jun-20 18:00N 51°45' W 008°14'510.4
2017-Jun-20 17:30N 51°50' W 008°16'1 2.7
2017-Jun-20 16:58N 51°51' W 008°18'0 0.0
2017-Jun-20 16:28N 51°51' W 008°18'0 0.0
2017-Jun-20 15:58N 51°51' W 008°18'0 0.0
2017-Jun-20 15:28N 51°51' W 008°18'0 0.0
2017-Jun-20 14:58N 51°51' W 008°18'0 0.0
2017-Jun-20 14:28N 51°51' W 008°18'0 0.0
2017-Jun-20 13:28N 51°51' W 008°18'0 0.0
2017-Jun-20 12:58N 51°51' W 008°18'0 0.0
2017-Jun-20 12:28N 51°51' W 008°18'0 0.0
2017-Jun-20 11:58N 51°51' W 008°18'0 0.0
2017-Jun-20 11:28N 51°51' W 008°18'0 0.0
2017-Jun-20 10:58N 51°51' W 008°18'0 0.0
2017-Jun-20 10:28N 51°51' W 008°18'0 0.0
2017-Jun-20 09:58N 51°51' W 008°18'0 0.0
2017-Jun-20 09:28N 51°51' W 008°18'0 0.0
2017-Jun-20 08:58N 51°51' W 008°18'0 0.0
2017-Jun-20 08:28N 51°51' W 008°18'0 0.0
2017-Jun-20 07:58N 51°51' W 008°18'0 0.0
2017-Jun-20 07:28N 51°51' W 008°18'0 0.0
2017-Jun-20 06:58N 51°51' W 008°18'0 0.0
2017-Jun-20 06:28N 51°51' W 008°18'0 0.0
2017-Jun-20 06:00N 51°51' W 008°18'1 1.4
2017-Jun-20 05:30N 51°51' W 008°17'510.6
2017-Jun-20 05:00N 51°46' W 008°15'714.3
2017-Jun-20 04:31N 51°40' W 008°08'1020.2
2017-Jun-20 04:01N 51°33' W 007°56'1020.1
2017-Jun-20 03:31N 51°27' W 007°44'1019.8
2017-Jun-20 03:01N 51°20' W 007°33'1020.0
2017-Jun-20 02:30N 51°13' W 007°22'1020.0
2017-Jun-20 02:01N 51°06' W 007°10'1020.0
2017-Jun-20 01:31N 50°59' W 006°58'1019.9
2017-Jun-20 01:01N 50°52' W 006°47'1019.7
2017-Jun-20 00:29N 50°45' W 006°35'919.7
2017-Jun-20 00:01N 50°39' W 006°24'1219.7
2017-Jun-19 23:24N 50°31' W 006°11'819.7
2017-Jun-19 23:00N 50°25' W 006°02'918.8
2017-Jun-19 22:31N 50°17' W 005°54'1120.8
2017-Jun-19 21:59N 50°06' W 005°54'1020.4
2017-Jun-19 21:30N 49°57' W 005°53'1118.2
2017-Jun-19 20:56N 49°51' W 005°39'920.3
2017-Jun-19 20:30N 49°49' W 005°26'1020.2
2017-Jun-19 20:00N 49°47' W 005°11'1020.2
2017-Jun-19 19:30N 49°44' W 004°56'1120.3
2017-Jun-19 18:57N 49°41' W 004°40'1020.3
2017-Jun-19 18:28N 49°39' W 004°25'1220.2
2017-Jun-19 17:53N 49°37' W 004°07'820.2
2017-Jun-19 17:30N 49°35' W 003°55'1020.0
2017-Jun-19 17:00N 49°33' W 003°40'1019.9
2017-Jun-19 16:31N 49°30' W 003°25'1019.7
2017-Jun-19 16:00N 49°28' W 003°11'1019.5
2017-Jun-19 15:30N 49°26' W 002°56'1020.0
2017-Jun-19 15:00N 49°24' W 002°41'8 3.1
2017-Jun-19 12:27N 49°28' W 002°30'0 0.1
2017-Jun-19 12:00N 49°28' W 002°30'0 0.0
2017-Jun-19 10:15N 49°28' W 002°30'0 0.1
2017-Jun-19 09:51N 49°28' W 002°30'0 0.1
2017-Jun-19 09:22N 49°28' W 002°30'0 0.1
2017-Jun-19 08:55N 49°28' W 002°30'0 0.0
2017-Jun-19 08:24N 49°28' W 002°30'0 0.1
2017-Jun-19 07:59N 49°28' W 002°30'0 0.1
2017-Jun-19 07:30N 49°28' W 002°30'0 0.1
2017-Jun-19 06:57N 49°28' W 002°30'0 0.0
2017-Jun-19 06:27N 49°28' W 002°30'21 4.9
2017-Jun-19 02:07N 49°42' W 002°54'216.9
2017-Jun-19 02:00N 49°44' W 002°55'917.1
2017-Jun-19 01:27N 49°53' W 002°58'613.7
2017-Jun-19 01:01N 49°58' W 002°52'815.8
2017-Jun-19 00:31N 50°00' W 002°40'814.2
2017-Jun-18 23:58N 50°03' W 002°29'714.5
2017-Jun-18 23:28N 50°06' W 002°19'715.0
2017-Jun-18 23:01N 50°09' W 002°09'815.6
2017-Jun-18 22:30N 50°13' W 001°58'816.1
2017-Jun-18 22:00N 50°17' W 001°48'816.3
2017-Jun-18 21:30N 50°21' W 001°36'816.6
2017-Jun-18 21:01N 50°25' W 001°25'816.7
2017-Jun-18 20:31N 50°30' W 001°14'816.8
2017-Jun-18 20:00N 50°33' W 001°03'815.1
2017-Jun-18 19:30N 50°40' W 000°58'4 8.8
2017-Jun-18 19:01N 50°44' W 001°03'815.0
2017-Jun-18 18:30N 50°46' W 001°14'4 8.8
2017-Jun-18 18:00N 50°49' W 001°18'5 9.4
2017-Jun-18 17:31N 50°53' W 001°23'0 0.8
2017-Jun-18 16:59N 50°53' W 001°24'0 0.0
2017-Jun-18 16:29N 50°53' W 001°24'0 0.0
2017-Jun-18 15:59N 50°53' W 001°24'0 0.0
2017-Jun-18 15:28N 50°53' W 001°24'0 0.0
2017-Jun-18 14:49N 50°53' W 001°24'0 0.0
2017-Jun-18 13:58N 50°53' W 001°24'0 0.0
2017-Jun-18 13:28N 50°53' W 001°24'0 0.0
2017-Jun-18 12:58N 50°53' W 001°24'0 0.0
2017-Jun-18 12:28N 50°53' W 001°24'0 0.0
2017-Jun-18 11:58N 50°53' W 001°24'0 0.0
2017-Jun-18 11:19N 50°53' W 001°24'0 0.0
2017-Jun-18 10:58N 50°53' W 001°24'0 0.0
2017-Jun-18 10:28N 50°53' W 001°24'0 0.0
2017-Jun-18 09:58N 50°53' W 001°24'0 0.0
2017-Jun-18 09:28N 50°53' W 001°24'0 0.0
2017-Jun-18 08:58N 50°53' W 001°24'0 0.0
2017-Jun-18 08:28N 50°53' W 001°24'0 0.0
2017-Jun-18 07:58N 50°53' W 001°24'0 0.0
2017-Jun-18 07:28N 50°53' W 001°24'0 0.0
2017-Jun-18 06:58N 50°53' W 001°24'0 0.0
2017-Jun-18 06:28N 50°53' W 001°24'0 0.0
2017-Jun-18 05:55N 50°53' W 001°24'0 0.0
2017-Jun-18 05:28N 50°53' W 001°24'0 0.0
2017-Jun-18 04:58N 50°53' W 001°24'0 0.0
2017-Jun-18 04:28N 50°53' W 001°24'0 0.4
2017-Jun-18 04:01N 50°53' W 001°24'4 8.1
2017-Jun-18 03:30N 50°50' W 001°19'4 7.6
2017-Jun-18 03:00N 50°47' W 001°17'714.9
2017-Jun-18 02:30N 50°45' W 001°06'713.2
2017-Jun-18 02:00N 50°40' W 000°58'510.4
2017-Jun-18 01:30N 50°35' W 000°59'612.2
2017-Jun-18 01:00N 50°29' W 000°55'612.1
2017-Jun-18 00:30N 50°24' W 000°51'612.6
2017-Jun-18 00:00N 50°18' W 000°47'612.4
2017-Jun-17 23:30N 50°12' W 000°44'612.4
2017-Jun-17 23:01N 50°07' W 000°40'612.8
2017-Jun-17 22:30N 50°01' W 000°36'713.3
2017-Jun-17 22:00N 49°55' W 000°32'713.3
2017-Jun-17 21:30N 49°49' W 000°28'713.4
2017-Jun-17 21:00N 49°42' W 000°23'713.2
2017-Jun-17 20:30N 49°36' W 000°19'612.5
2017-Jun-17 20:00N 49°32' W 000°12'510.5
2017-Jun-17 19:30N 49°31' W 000°04'713.5
2017-Jun-17 19:00N 49°29' E 000°06'0 1.0
2017-Jun-17 18:30N 49°29' E 000°07'0 0.0
2017-Jun-17 18:00N 49°29' E 000°07'0 0.0
2017-Jun-17 17:30N 49°29' E 000°07'0 0.0
2017-Jun-17 16:59N 49°29' E 000°07'0 0.0
2017-Jun-17 16:29N 49°29' E 000°07'0 0.0
2017-Jun-17 16:00N 49°29' E 000°07'0 0.0
2017-Jun-17 15:28N 49°29' E 000°07'0 0.0
2017-Jun-17 14:58N 49°29' E 000°07'0 0.0
2017-Jun-17 14:30N 49°29' E 000°07'0 0.0
2017-Jun-17 13:29N 49°29' E 000°07'0 0.0
2017-Jun-17 12:59N 49°29' E 000°07'0 0.0
2017-Jun-17 12:28N 49°29' E 000°07'0 0.0
2017-Jun-17 12:00N 49°29' E 000°07'0 0.0
2017-Jun-17 11:29N 49°29' E 000°07'0 0.0
2017-Jun-17 11:00N 49°29' E 000°07'0 0.0
2017-Jun-17 10:30N 49°29' E 000°07'0 0.0
2017-Jun-17 10:00N 49°29' E 000°07'0 0.0
2017-Jun-17 09:30N 49°29' E 000°07'0 0.0
2017-Jun-17 08:59N 49°29' E 000°07'0 0.0
2017-Jun-17 08:29N 49°29' E 000°07'0 0.0
2017-Jun-17 07:58N 49°29' E 000°07'0 0.0
2017-Jun-17 07:27N 49°29' E 000°07'0 0.0
2017-Jun-17 07:00N 49°29' E 000°07'0 0.0
2017-Jun-17 06:28N 49°29' E 000°07'0 0.0
2017-Jun-17 06:00N 49°29' E 000°07'0 0.0
2017-Jun-17 05:30N 49°29' E 000°07'0 0.0
2017-Jun-17 05:00N 49°29' E 000°07'0 0.0
2017-Jun-17 04:30N 49°29' E 000°07'1 1.7
2017-Jun-17 04:00N 49°29' E 000°05'612.2
2017-Jun-17 03:30N 49°31' W 000°04'714.2
2017-Jun-17 03:00N 49°33' W 000°14'917.2
2017-Jun-17 02:30N 49°40' W 000°21'917.3
2017-Jun-17 02:00N 49°49' W 000°23'816.8
2017-Jun-17 01:30N 49°56' W 000°16'815.9
2017-Jun-17 01:00N 50°03' W 000°11'612.7
2017-Jun-17 00:30N 50°09' W 000°06'612.5
2017-Jun-17 00:00N 50°15' W 000°03'714.2
2017-Jun-16 23:30N 50°22' W 000°05'612.1
2017-Jun-16 23:00N 50°27' W 000°02'713.4
2017-Jun-16 22:30N 50°29' E 000°09'713.9
2017-Jun-16 22:00N 50°31' E 000°19'814.3
2017-Jun-16 21:26N 50°33' E 000°31'614.1
2017-Jun-16 21:00N 50°36' E 000°40'714.2
2017-Jun-16 20:31N 50°41' E 000°49'714.0
2017-Jun-16 20:00N 50°45' E 000°57'713.6
2017-Jun-16 19:30N 50°49' E 001°06'713.2
2017-Jun-16 19:00N 50°53' E 001°14'612.6
2017-Jun-16 18:30N 50°57' E 001°21'612.3
2017-Jun-16 18:00N 51°02' E 001°28'612.0
2017-Jun-16 17:31N 51°06' E 001°34'611.8
2017-Jun-16 17:01N 51°11' E 001°41'612.1
2017-Jun-16 16:30N 51°16' E 001°46'613.0
2017-Jun-16 16:00N 51°22' E 001°50'713.2
2017-Jun-16 15:30N 51°28' E 001°53'713.8
2017-Jun-16 15:00N 51°34' E 001°48'714.8
2017-Jun-16 14:30N 51°41' E 001°45'1515.3
2017-Jun-16 13:30N 51°57' E 001°44'1019.8
2017-Jun-16 13:01N 52°06' E 001°46'2619.6
2017-Jun-16 11:41N 52°32' E 001°56'420.2
2017-Jun-16 11:31N 52°35' E 001°57'918.6
2017-Jun-16 11:01N 52°44' E 001°52'1020.0
2017-Jun-16 10:30N 52°52' E 001°43'1019.9
2017-Jun-16 10:01N 52°60' E 001°32'1019.1
2017-Jun-16 09:31N 53°08' E 001°24'918.8
2017-Jun-16 09:01N 53°16' E 001°16'4718.9
2017-Jun-16 06:30N 53°56' E 000°32'918.9
2017-Jun-16 06:01N 54°04' E 000°24'918.7
2017-Jun-16 05:30N 54°12' E 000°16'918.5
2017-Jun-16 05:01N 54°20' E 000°07'918.3
2017-Jun-16 04:31N 54°27' W 000°01'918.2
2017-Jun-16 04:01N 54°35' W 000°10'918.0
2017-Jun-16 03:31N 54°42' W 000°19'917.9
2017-Jun-16 03:00N 54°50' W 000°27'917.9
2017-Jun-16 02:30N 54°57' W 000°36'917.8
2017-Jun-16 02:00N 55°05' W 000°44'917.8
2017-Jun-16 01:30N 55°12' W 000°53'917.8
2017-Jun-16 01:01N 55°20' W 001°02'12720.1
2017-Jun-16 01:00N 55°30' W 001°12'3 6.5 250 / 191012.310.8 12.0 7.915.0
2017-Jun-16 00:30N 55°27' W 001°10'917.9
2017-Jun-16 00:00N 55°34' W 001°19'918.0
2017-Jun-15 23:30N 55°42' W 001°28'918.3
2017-Jun-15 23:00N 55°49' W 001°39'918.3
2017-Jun-15 22:30N 55°55' W 001°50'918.4
2017-Jun-15 22:01N 56°02' W 002°01'917.9
2017-Jun-15 21:31N 56°05' W 002°17'918.2
2017-Jun-15 21:01N 56°07' W 002°32'918.3
2017-Jun-15 20:30N 56°06' W 002°49'611.0
2017-Jun-15 20:00N 56°04' W 002°58'4 8.5
2017-Jun-15 19:30N 56°03' W 003°05'4 8.8
2017-Jun-15 19:01N 56°02' W 003°13'510.5
2017-Jun-15 18:30N 56°01' W 003°22'0 0.0
2017-Jun-15 06:31N 56°00' W 003°22'0 3.4
2017-Jun-15 06:27N 56°00' W 003°22'510.5
2017-Jun-15 06:00N 56°02' W 003°14'612.7
2017-Jun-15 05:30N 56°04' W 003°03'612.2
2017-Jun-15 05:01N 56°05' W 002°53'918.0
2017-Jun-15 04:31N 56°09' W 002°38'917.2
2017-Jun-15 04:01N 56°14' W 002°26'918.2
2017-Jun-15 03:30N 56°21' W 002°16'918.3
2017-Jun-15 03:00N 56°29' W 002°07'918.0
2017-Jun-15 02:30N 56°37' W 001°60'918.1
2017-Jun-15 02:00N 56°46' W 001°53'917.9
2017-Jun-15 01:30N 56°54' W 001°47'917.8
2017-Jun-15 01:00N 57°02' W 001°41'917.4
2017-Jun-15 00:30N 57°10' W 001°37'917.7
2017-Jun-15 00:00N 57°19' W 001°36'917.3
2017-Jun-14 23:30N 57°28' W 001°36'816.6
2017-Jun-14 23:00N 57°36' W 001°39'816.5
2017-Jun-14 22:30N 57°43' W 001°47'816.1
2017-Jun-14 22:00N 57°47' W 001°60'41 1.7
2017-Jun-13 22:15N 58°23' W 002°38'2 9.7
2017-Jun-13 22:00N 58°24' W 002°35'9 7.1
2017-Jun-13 20:48N 58°32' W 002°42'3 9.7
2017-Jun-13 20:30N 58°34' W 002°46'511.0
2017-Jun-13 20:00N 58°38' W 002°54'815.4
2017-Jun-13 19:30N 58°43' W 003°06'815.3
2017-Jun-13 19:00N 58°44' W 003°20'816.2
2017-Jun-13 18:30N 58°44' W 003°35'917.2
2017-Jun-13 18:00N 58°44' W 003°52'917.1
2017-Jun-13 17:30N 58°43' W 004°08'917.0
2017-Jun-13 17:00N 58°43' W 004°25'917.1
2017-Jun-13 16:30N 58°43' W 004°41'2315.2
2017-Jun-13 15:00N 58°33' W 005°21'16615.8
2017-Jun-13 04:28N 55°57' W 007°08'714.8
2017-Jun-13 04:00N 55°51' W 007°03'815.2
2017-Jun-13 03:30N 55°44' W 006°58'714.9
2017-Jun-13 03:00N 55°38' W 006°49'714.9
2017-Jun-13 02:30N 55°34' W 006°38'714.7
2017-Jun-13 02:00N 55°30' W 006°27'  
Track history (hours):
 
Tides and Currents Weather Stations Pressure Air Temp Water Temp Dewpoint Dewpoint Depression Visibility Wind Speed Wind Dir Waves Ship Positions

Caribbean Princess

Operator: Princess Cruises

Last reported at 2017-Jun-23 01:44 UTC. Time now 2017-Jun-23 20:40 UTC.
Position N 55°23' W 004°60'.

Type: Passenger vessel. MMSI: 310423000.

Date/timePositionNaut miles runAvg speedWind from/ knotsBaromVisibWave heightAir tempDewpointWater temp
2017-Jun-23 01:44N 55°23' W 004°60'1211.2
2017-Jun-23 00:37N 55°16' W 005°18'311.9
2017-Jun-23 00:22N 55°13' W 005°20'511.3
2017-Jun-22 23:56N 55°08' W 005°23'511.4
2017-Jun-22 23:30N 55°04' W 005°26'611.8
2017-Jun-22 23:01N 54°58' W 005°24'612.2
2017-Jun-22 22:31N 54°52' W 005°24'612.0
2017-Jun-22 22:01N 54°46' W 005°22'611.7
2017-Jun-22 21:30N 54°44' W 005°32'611.1
2017-Jun-22 21:01N 54°42' W 005°41'510.3
2017-Jun-22 20:30N 54°40' W 005°50'4 3.4
2017-Jun-22 19:14N 54°37' W 005°54'0 0.0
2017-Jun-22 18:50N 54°37' W 005°54'0 0.0
2017-Jun-22 18:17N 54°37' W 005°54'0 0.0
2017-Jun-22 17:53N 54°37' W 005°54'0 0.0
2017-Jun-22 17:26N 54°37' W 005°54'0 0.0
2017-Jun-22 16:59N 54°37' W 005°54'0 0.0
2017-Jun-22 16:08N 54°37' W 005°54'0 0.0
2017-Jun-22 15:26N 54°37' W 005°54'0 0.0
2017-Jun-22 14:53N 54°37' W 005°54'0 0.0
2017-Jun-22 14:26N 54°37' W 005°54'0 0.0
2017-Jun-22 13:17N 54°37' W 005°54'0 0.0
2017-Jun-22 12:05N 54°37' W 005°54'0 0.0
2017-Jun-22 11:20N 54°37' W 005°54'0 0.0
2017-Jun-22 10:53N 54°37' W 005°54'0 0.0
2017-Jun-22 10:17N 54°37' W 005°54'0 0.0
2017-Jun-22 09:53N 54°37' W 005°54'0 0.0
2017-Jun-22 09:26N 54°37' W 005°54'0 0.0
2017-Jun-22 08:50N 54°37' W 005°54'0 0.0
2017-Jun-22 08:17N 54°37' W 005°54'0 0.0
2017-Jun-22 07:05N 54°37' W 005°54'0 0.0
2017-Jun-22 06:53N 54°37' W 005°54'0 0.0
2017-Jun-22 06:22N 54°37' W 005°54'1 1.6
2017-Jun-22 06:00N 54°38' W 005°53'2 3.1
2017-Jun-22 05:30N 54°39' W 005°52'510.2
2017-Jun-22 05:00N 54°42' W 005°45'611.6
2017-Jun-22 04:30N 54°44' W 005°36'611.7
2017-Jun-22 04:00N 54°46' W 005°27'510.3
2017-Jun-22 03:30N 54°43' W 005°20'611.2
2017-Jun-22 03:00N 54°38' W 005°15'510.9
2017-Jun-22 02:30N 54°34' W 005°09'611.3
2017-Jun-22 02:00N 54°29' W 005°04'510.8
2017-Jun-22 01:30N 54°24' W 004°59'510.8
2017-Jun-22 01:01N 54°20' W 005°03'611.7
2017-Jun-22 00:31N 54°14' W 005°08'611.7
2017-Jun-22 00:00N 54°09' W 005°13'611.7
2017-Jun-21 23:30N 54°04' W 005°16'510.9
2017-Jun-21 23:00N 53°59' W 005°21'126 5.2
2017-Jun-20 22:48N 51°60' W 006°30'516.6
2017-Jun-20 22:30N 51°59' W 006°37'917.1
2017-Jun-20 22:00N 51°56' W 006°51'816.7
2017-Jun-20 21:30N 51°54' W 007°04'713.3
2017-Jun-20 21:00N 51°53' W 007°14'612.5
2017-Jun-20 20:30N 51°51' W 007°24'612.3
2017-Jun-20 20:00N 51°50' W 007°33'612.9
2017-Jun-20 19:30N 51°48' W 007°44'713.2
2017-Jun-20 19:00N 51°46' W 007°54'713.0
2017-Jun-20 18:30N 51°45' W 008°04'612.6
2017-Jun-20 18:00N 51°45' W 008°14'510.4
2017-Jun-20 17:30N 51°50' W 008°16'1 2.7
2017-Jun-20 16:58N 51°51' W 008°18'0 0.0
2017-Jun-20 16:28N 51°51' W 008°18'0 0.0
2017-Jun-20 15:58N 51°51' W 008°18'0 0.0
2017-Jun-20 15:28N 51°51' W 008°18'0 0.0
2017-Jun-20 14:58N 51°51' W 008°18'0 0.0
2017-Jun-20 14:28N 51°51' W 008°18'0 0.0
2017-Jun-20 13:28N 51°51' W 008°18'0 0.0
2017-Jun-20 12:58N 51°51' W 008°18'0 0.0
2017-Jun-20 12:28N 51°51' W 008°18'0 0.0
2017-Jun-20 11:58N 51°51' W 008°18'0 0.0
2017-Jun-20 11:28N 51°51' W 008°18'0 0.0
2017-Jun-20 10:58N 51°51' W 008°18'0 0.0
2017-Jun-20 10:28N 51°51' W 008°18'0 0.0
2017-Jun-20 09:58N 51°51' W 008°18'0 0.0
2017-Jun-20 09:28N 51°51' W 008°18'0 0.0
2017-Jun-20 08:58N 51°51' W 008°18'0 0.0
2017-Jun-20 08:28N 51°51' W 008°18'0 0.0
2017-Jun-20 07:58N 51°51' W 008°18'0 0.0
2017-Jun-20 07:28N 51°51' W 008°18'0 0.0
2017-Jun-20 06:58N 51°51' W 008°18'0 0.0
2017-Jun-20 06:28N 51°51' W 008°18'0 0.0
2017-Jun-20 06:00N 51°51' W 008°18'1 1.4
2017-Jun-20 05:30N 51°51' W 008°17'510.6
2017-Jun-20 05:00N 51°46' W 008°15'714.3
2017-Jun-20 04:31N 51°40' W 008°08'1020.2
2017-Jun-20 04:01N 51°33' W 007°56'1020.1
2017-Jun-20 03:31N 51°27' W 007°44'1019.8
2017-Jun-20 03:01N 51°20' W 007°33'1020.0
2017-Jun-20 02:30N 51°13' W 007°22'1020.0
2017-Jun-20 02:01N 51°06' W 007°10'1020.0
2017-Jun-20 01:31N 50°59' W 006°58'1019.9
2017-Jun-20 01:01N 50°52' W 006°47'1019.7
2017-Jun-20 00:29N 50°45' W 006°35'919.7
2017-Jun-20 00:01N 50°39' W 006°24'1219.7
2017-Jun-19 23:24N 50°31' W 006°11'819.7
2017-Jun-19 23:00N 50°25' W 006°02'918.8
2017-Jun-19 22:31N 50°17' W 005°54'1120.8
2017-Jun-19 21:59N 50°06' W 005°54'1020.4
2017-Jun-19 21:30N 49°57' W 005°53'1118.2
2017-Jun-19 20:56N 49°51' W 005°39'920.3
2017-Jun-19 20:30N 49°49' W 005°26'1020.2
2017-Jun-19 20:00N 49°47' W 005°11'1020.2
2017-Jun-19 19:30N 49°44' W 004°56'1120.3
2017-Jun-19 18:57N 49°41' W 004°40'1020.3
2017-Jun-19 18:28N 49°39' W 004°25'1220.2
2017-Jun-19 17:53N 49°37' W 004°07'820.2
2017-Jun-19 17:30N 49°35' W 003°55'1020.0
2017-Jun-19 17:00N 49°33' W 003°40'1019.9
2017-Jun-19 16:31N 49°30' W 003°25'1019.7
2017-Jun-19 16:00N 49°28' W 003°11'1019.5
2017-Jun-19 15:30N 49°26' W 002°56'1020.0
2017-Jun-19 15:00N 49°24' W 002°41'8 3.1
2017-Jun-19 12:27N 49°28' W 002°30'0 0.1
2017-Jun-19 12:00N 49°28' W 002°30'0 0.0
2017-Jun-19 10:15N 49°28' W 002°30'0 0.1
2017-Jun-19 09:51N 49°28' W 002°30'0 0.1
2017-Jun-19 09:22N 49°28' W 002°30'0 0.1
2017-Jun-19 08:55N 49°28' W 002°30'0 0.0
2017-Jun-19 08:24N 49°28' W 002°30'0 0.1
2017-Jun-19 07:59N 49°28' W 002°30'0 0.1
2017-Jun-19 07:30N 49°28' W 002°30'0 0.1
2017-Jun-19 06:57N 49°28' W 002°30'0 0.0
2017-Jun-19 06:27N 49°28' W 002°30'21 4.9
2017-Jun-19 02:07N 49°42' W 002°54'216.9
2017-Jun-19 02:00N 49°44' W 002°55'917.1
2017-Jun-19 01:27N 49°53' W 002°58'613.7
2017-Jun-19 01:01N 49°58' W 002°52'815.8
2017-Jun-19 00:31N 50°00' W 002°40'814.2
2017-Jun-18 23:58N 50°03' W 002°29'714.5
2017-Jun-18 23:28N 50°06' W 002°19'715.0
2017-Jun-18 23:01N 50°09' W 002°09'815.6
2017-Jun-18 22:30N 50°13' W 001°58'816.1
2017-Jun-18 22:00N 50°17' W 001°48'816.3
2017-Jun-18 21:30N 50°21' W 001°36'816.6
2017-Jun-18 21:01N 50°25' W 001°25'816.7
2017-Jun-18 20:31N 50°30' W 001°14'816.8
2017-Jun-18 20:00N 50°33' W 001°03'815.1
2017-Jun-18 19:30N 50°40' W 000°58'4 8.8
2017-Jun-18 19:01N 50°44' W 001°03'815.0
2017-Jun-18 18:30N 50°46' W 001°14'4 8.8
2017-Jun-18 18:00N 50°49' W 001°18'5 9.4
2017-Jun-18 17:31N 50°53' W 001°23'0 0.8
2017-Jun-18 16:59N 50°53' W 001°24'0 0.0
2017-Jun-18 16:29N 50°53' W 001°24'0 0.0
2017-Jun-18 15:59N 50°53' W 001°24'0 0.0
2017-Jun-18 15:28N 50°53' W 001°24'0 0.0
2017-Jun-18 14:49N 50°53' W 001°24'0 0.0
2017-Jun-18 13:58N 50°53' W 001°24'0 0.0
2017-Jun-18 13:28N 50°53' W 001°24'0 0.0
2017-Jun-18 12:58N 50°53' W 001°24'0 0.0
2017-Jun-18 12:28N 50°53' W 001°24'0 0.0
2017-Jun-18 11:58N 50°53' W 001°24'0 0.0
2017-Jun-18 11:19N 50°53' W 001°24'0 0.0
2017-Jun-18 10:58N 50°53' W 001°24'0 0.0
2017-Jun-18 10:28N 50°53' W 001°24'0 0.0
2017-Jun-18 09:58N 50°53' W 001°24'0 0.0
2017-Jun-18 09:28N 50°53' W 001°24'0 0.0
2017-Jun-18 08:58N 50°53' W 001°24'0 0.0
2017-Jun-18 08:28N 50°53' W 001°24'0 0.0
2017-Jun-18 07:58N 50°53' W 001°24'0 0.0
2017-Jun-18 07:28N 50°53' W 001°24'0 0.0
2017-Jun-18 06:58N 50°53' W 001°24'0 0.0
2017-Jun-18 06:28N 50°53' W 001°24'0 0.0
2017-Jun-18 05:55N 50°53' W 001°24'0 0.0
2017-Jun-18 05:28N 50°53' W 001°24'0 0.0
2017-Jun-18 04:58N 50°53' W 001°24'0 0.0
2017-Jun-18 04:28N 50°53' W 001°24'0 0.4
2017-Jun-18 04:01N 50°53' W 001°24'4 8.1
2017-Jun-18 03:30N 50°50' W 001°19'4 7.6
2017-Jun-18 03:00N 50°47' W 001°17'714.9
2017-Jun-18 02:30N 50°45' W 001°06'713.2
2017-Jun-18 02:00N 50°40' W 000°58'510.4
2017-Jun-18 01:30N 50°35' W 000°59'612.2
2017-Jun-18 01:00N 50°29' W 000°55'612.1
2017-Jun-18 00:30N 50°24' W 000°51'612.6
2017-Jun-18 00:00N 50°18' W 000°47'612.4
2017-Jun-17 23:30N 50°12' W 000°44'612.4
2017-Jun-17 23:01N 50°07' W 000°40'612.8
2017-Jun-17 22:30N 50°01' W 000°36'713.3
2017-Jun-17 22:00N 49°55' W 000°32'713.3
2017-Jun-17 21:30N 49°49' W 000°28'713.4
2017-Jun-17 21:00N 49°42' W 000°23'713.2
2017-Jun-17 20:30N 49°36' W 000°19'612.5
2017-Jun-17 20:00N 49°32' W 000°12'510.5
2017-Jun-17 19:30N 49°31' W 000°04'713.5
2017-Jun-17 19:00N 49°29' E 000°06'0 1.0
2017-Jun-17 18:30N 49°29' E 000°07'0 0.0
2017-Jun-17 18:00N 49°29' E 000°07'0 0.0
2017-Jun-17 17:30N 49°29' E 000°07'0 0.0
2017-Jun-17 16:59N 49°29' E 000°07'0 0.0
2017-Jun-17 16:29N 49°29' E 000°07'0 0.0
2017-Jun-17 16:00N 49°29' E 000°07'0 0.0
2017-Jun-17 15:28N 49°29' E 000°07'0 0.0
2017-Jun-17 14:58N 49°29' E 000°07'0 0.0
2017-Jun-17 14:30N 49°29' E 000°07'0 0.0
2017-Jun-17 13:29N 49°29' E 000°07'0 0.0
2017-Jun-17 12:59N 49°29' E 000°07'0 0.0
2017-Jun-17 12:28N 49°29' E 000°07'0 0.0
2017-Jun-17 12:00N 49°29' E 000°07'0 0.0
2017-Jun-17 11:29N 49°29' E 000°07'0 0.0
2017-Jun-17 11:00N 49°29' E 000°07'0 0.0
2017-Jun-17 10:30N 49°29' E 000°07'0 0.0
2017-Jun-17 10:00N 49°29' E 000°07'0 0.0
2017-Jun-17 09:30N 49°29' E 000°07'0 0.0
2017-Jun-17 08:59N 49°29' E 000°07'0 0.0
2017-Jun-17 08:29N 49°29' E 000°07'0 0.0
2017-Jun-17 07:58N 49°29' E 000°07'0 0.0
2017-Jun-17 07:27N 49°29' E 000°07'0 0.0
2017-Jun-17 07:00N 49°29' E 000°07'0 0.0
2017-Jun-17 06:28N 49°29' E 000°07'0 0.0
2017-Jun-17 06:00N 49°29' E 000°07'0 0.0
2017-Jun-17 05:30N 49°29' E 000°07'0 0.0
2017-Jun-17 05:00N 49°29' E 000°07'0 0.0
2017-Jun-17 04:30N 49°29' E 000°07'1 1.7
2017-Jun-17 04:00N 49°29' E 000°05'612.2
2017-Jun-17 03:30N 49°31' W 000°04'714.2
2017-Jun-17 03:00N 49°33' W 000°14'917.2
2017-Jun-17 02:30N 49°40' W 000°21'917.3
2017-Jun-17 02:00N 49°49' W 000°23'816.8
2017-Jun-17 01:30N 49°56' W 000°16'815.9
2017-Jun-17 01:00N 50°03' W 000°11'612.7
2017-Jun-17 00:30N 50°09' W 000°06'612.5
2017-Jun-17 00:00N 50°15' W 000°03'714.2
2017-Jun-16 23:30N 50°22' W 000°05'612.1
2017-Jun-16 23:00N 50°27' W 000°02'713.4
2017-Jun-16 22:30N 50°29' E 000°09'713.9
2017-Jun-16 22:00N 50°31' E 000°19'814.3
2017-Jun-16 21:26N 50°33' E 000°31'614.1
2017-Jun-16 21:00N 50°36' E 000°40'714.2
2017-Jun-16 20:31N 50°41' E 000°49'714.0
2017-Jun-16 20:00N 50°45' E 000°57'713.6
2017-Jun-16 19:30N 50°49' E 001°06'713.2
2017-Jun-16 19:00N 50°53' E 001°14'612.6
2017-Jun-16 18:30N 50°57' E 001°21'612.3
2017-Jun-16 18:00N 51°02' E 001°28'612.0
2017-Jun-16 17:31N 51°06' E 001°34'611.8
2017-Jun-16 17:01N 51°11' E 001°41'612.1
2017-Jun-16 16:30N 51°16' E 001°46'613.0
2017-Jun-16 16:00N 51°22' E 001°50'713.2
2017-Jun-16 15:30N 51°28' E 001°53'713.8
2017-Jun-16 15:00N 51°34' E 001°48'714.8
2017-Jun-16 14:30N 51°41' E 001°45'1515.3
2017-Jun-16 13:30N 51°57' E 001°44'1019.8
2017-Jun-16 13:01N 52°06' E 001°46'2619.6
2017-Jun-16 11:41N 52°32' E 001°56'420.2
2017-Jun-16 11:31N 52°35' E 001°57'918.6
2017-Jun-16 11:01N 52°44' E 001°52'1020.0
2017-Jun-16 10:30N 52°52' E 001°43'1019.9
2017-Jun-16 10:01N 52°60' E 001°32'1019.1
2017-Jun-16 09:31N 53°08' E 001°24'918.8
2017-Jun-16 09:01N 53°16' E 001°16'4718.9
2017-Jun-16 06:30N 53°56' E 000°32'918.9
2017-Jun-16 06:01N 54°04' E 000°24'918.7
2017-Jun-16 05:30N 54°12' E 000°16'918.5
2017-Jun-16 05:01N 54°20' E 000°07'918.3
2017-Jun-16 04:31N 54°27' W 000°01'918.2
2017-Jun-16 04:01N 54°35' W 000°10'918.0
2017-Jun-16 03:31N 54°42' W 000°19'917.9
2017-Jun-16 03:00N 54°50' W 000°27'917.9
2017-Jun-16 02:30N 54°57' W 000°36'917.8
2017-Jun-16 02:00N 55°05' W 000°44'917.8
2017-Jun-16 01:30N 55°12' W 000°53'917.8
2017-Jun-16 01:01N 55°20' W 001°02'12720.1
2017-Jun-16 01:00N 55°30' W 001°12'3 6.5 250 / 191012.310.8 12.0 7.915.0
2017-Jun-16 00:30N 55°27' W 001°10'917.9
2017-Jun-16 00:00N 55°34' W 001°19'918.0
2017-Jun-15 23:30N 55°42' W 001°28'918.3
2017-Jun-15 23:00N 55°49' W 001°39'918.3
2017-Jun-15 22:30N 55°55' W 001°50'918.4
2017-Jun-15 22:01N 56°02' W 002°01'917.9
2017-Jun-15 21:31N 56°05' W 002°17'918.2
2017-Jun-15 21:01N 56°07' W 002°32'918.3
2017-Jun-15 20:30N 56°06' W 002°49'611.0
2017-Jun-15 20:00N 56°04' W 002°58'4 8.5
2017-Jun-15 19:30N 56°03' W 003°05'4 8.8
2017-Jun-15 19:01N 56°02' W 003°13'510.5
2017-Jun-15 18:30N 56°01' W 003°22'0 0.0
2017-Jun-15 06:31N 56°00' W 003°22'0 3.4
2017-Jun-15 06:27N 56°00' W 003°22'510.5
2017-Jun-15 06:00N 56°02' W 003°14'612.7
2017-Jun-15 05:30N 56°04' W 003°03'612.2
2017-Jun-15 05:01N 56°05' W 002°53'918.0
2017-Jun-15 04:31N 56°09' W 002°38'917.2
2017-Jun-15 04:01N 56°14' W 002°26'918.2
2017-Jun-15 03:30N 56°21' W 002°16'918.3
2017-Jun-15 03:00N 56°29' W 002°07'918.0
2017-Jun-15 02:30N 56°37' W 001°60'918.1
2017-Jun-15 02:00N 56°46' W 001°53'917.9
2017-Jun-15 01:30N 56°54' W 001°47'917.8
2017-Jun-15 01:00N 57°02' W 001°41'917.4
2017-Jun-15 00:30N 57°10' W 001°37'917.7
2017-Jun-15 00:00N 57°19' W 001°36'917.3
2017-Jun-14 23:30N 57°28' W 001°36'816.6
2017-Jun-14 23:00N 57°36' W 001°39'816.5
2017-Jun-14 22:30N 57°43' W 001°47'816.1
2017-Jun-14 22:00N 57°47' W 001°60'41 1.7
2017-Jun-13 22:15N 58°23' W 002°38'2 9.7
2017-Jun-13 22:00N 58°24' W 002°35'9 7.1
2017-Jun-13 20:48N 58°32' W 002°42'3 9.7
2017-Jun-13 20:30N 58°34' W 002°46'511.0
2017-Jun-13 20:00N 58°38' W 002°54'815.4
2017-Jun-13 19:30N 58°43' W 003°06'815.3
2017-Jun-13 19:00N 58°44' W 003°20'816.2
2017-Jun-13 18:30N 58°44' W 003°35'917.2
2017-Jun-13 18:00N 58°44' W 003°52'917.1
2017-Jun-13 17:30N 58°43' W 004°08'917.0
2017-Jun-13 17:00N 58°43' W 004°25'917.1
2017-Jun-13 16:30N 58°43' W 004°41'2315.2
2017-Jun-13 15:00N 58°33' W 005°21'16615.8
2017-Jun-13 04:28N 55°57' W 007°08'714.8
2017-Jun-13 04:00N 55°51' W 007°03'815.2
2017-Jun-13 03:30N 55°44' W 006°58'714.9
2017-Jun-13 03:00N 55°38' W 006°49'714.9
2017-Jun-13 02:30N 55°34' W 006°38'714.7
2017-Jun-13 02:00N 55°30' W 006°27'  

Dump ship's entire track history